Addyston, Ohio
Current Conditions -  °F | °C
As of 10:52 AM on Wednesday 28 Jan 2015 (Local Time) from KCVG Reporting Station
Few Clouds Few Clouds  
Wind Chill: 21°   Ceiling: Unl
Heat Index: 26°   Visibility: 9mi
Dew Point: 15°   Wind: 5mph
Humidity: 63%   Direction: 160°SSE
Pressure: 30.37"   Gusts: NA
Location:  39.14°N, 84.71°W
Report Text: KCVG 281552Z 16004KT 9SM FEW300 M03/M09 A3037 RMK AO2 SLP295 T10331094
Loading
Personal Weather Stations






























Interactive Weather Map New forecast layout! Learn more

10-Day Weather Forecast

Advertisements
Track Severe Weather on mobile